sensor_id;sensor_type;location;lat;lon;timestamp;P1;durP1;ratioP1;P2;durP2;ratioP2
21822;SDS011;11074;48.596;9.238;2022-08-05T00:00:45;4.38;;;3.65;;
21822;SDS011;11074;48.596;9.238;2022-08-05T00:03:11;6.00;;;3.42;;
21822;SDS011;11074;48.596;9.238;2022-08-05T00:05:36;4.78;;;3.38;;
21822;SDS011;11074;48.596;9.238;2022-08-05T00:08:02;5.78;;;3.75;;
21822;SDS011;11074;48.596;9.238;2022-08-05T00:10:28;5.15;;;3.78;;
21822;SDS011;11074;48.596;9.238;2022-08-05T00:12:53;6.97;;;3.70;;
21822;SDS011;11074;48.596;9.238;2022-08-05T00:15:20;5.63;;;3.92;;
21822;SDS011;11074;48.596;9.238;2022-08-05T00:17:46;4.18;;;3.67;;
21822;SDS011;11074;48.596;9.238;2022-08-05T00:20:12;5.22;;;3.75;;
21822;SDS011;11074;48.596;9.238;2022-08-05T00:22:37;5.57;;;3.45;;
21822;SDS011;11074;48.596;9.238;2022-08-05T00:25:03;4.75;;;3.90;;
21822;SDS011;11074;48.596;9.238;2022-08-05T00:27:29;4.22;;;3.65;;
21822;SDS011;11074;48.596;9.238;2022-08-05T00:29:55;6.05;;;3.80;;
21822;SDS011;11074;48.596;9.238;2022-08-05T00:32:21;4.88;;;3.75;;
21822;SDS011;11074;48.596;9.238;2022-08-05T00:34:47;5.72;;;3.45;;
21822;SDS011;11074;48.596;9.238;2022-08-05T00:37:12;5.43;;;3.70;;
21822;SDS011;11074;48.596;9.238;2022-08-05T00:39:38;5.60;;;3.53;;
21822;SDS011;11074;48.596;9.238;2022-08-05T00:42:06;5.40;;;3.60;;
21822;SDS011;11074;48.596;9.238;2022-08-05T00:44:32;6.68;;;3.60;;
21822;SDS011;11074;48.596;9.238;2022-08-05T00:46:58;5.30;;;3.78;;
21822;SDS011;11074;48.596;9.238;2022-08-05T00:49:23;4.65;;;3.50;;
21822;SDS011;11074;48.596;9.238;2022-08-05T00:51:49;4.75;;;3.55;;
21822;SDS011;11074;48.596;9.238;2022-08-05T00:54:15;6.05;;;3.50;;
21822;SDS011;11074;48.596;9.238;2022-08-05T00:56:41;6.15;;;3.78;;
21822;SDS011;11074;48.596;9.238;2022-08-05T00:59:06;3.90;;;3.50;;
21822;SDS011;11074;48.596;9.238;2022-08-05T01:01:32;5.72;;;3.80;;
21822;SDS011;11074;48.596;9.238;2022-08-05T01:03:58;7.10;;;3.60;;
21822;SDS011;11074;48.596;9.238;2022-08-05T01:06:24;5.78;;;4.10;;
21822;SDS011;11074;48.596;9.238;2022-08-05T01:08:49;5.32;;;3.42;;
21822;SDS011;11074;48.596;9.238;2022-08-05T01:11:17;6.85;;;3.95;;
21822;SDS011;11074;48.596;9.238;2022-08-05T01:30:24;5.40;;;3.90;;
21822;SDS011;11074;48.596;9.238;2022-08-05T01:32:55;5.07;;;3.35;;
21822;SDS011;11074;48.596;9.238;2022-08-05T01:35:24;4.97;;;3.28;;
21822;SDS011;11074;48.596;9.238;2022-08-05T01:37:55;5.78;;;3.53;;
21822;SDS011;11074;48.596;9.238;2022-08-05T01:40:26;4.07;;;3.33;;
21822;SDS011;11074;48.596;9.238;2022-08-05T01:42:54;11.02;;;3.75;;
21822;SDS011;11074;48.596;9.238;2022-08-05T01:45:22;5.43;;;3.67;;
21822;SDS011;11074;48.596;9.238;2022-08-05T01:47:51;4.55;;;3.50;;
21822;SDS011;11074;48.596;9.238;2022-08-05T01:50:24;4.95;;;3.97;;
21822;SDS011;11074;48.596;9.238;2022-08-05T01:53:01;7.07;;;3.67;;
21822;SDS011;11074;48.596;9.238;2022-08-05T01:55:32;5.05;;;3.80;;
21822;SDS011;11074;48.596;9.238;2022-08-05T01:58:01;5.20;;;3.58;;
21822;SDS011;11074;48.596;9.238;2022-08-05T02:00:32;8.88;;;3.63;;
21822;SDS011;11074;48.596;9.238;2022-08-05T02:03:05;4.10;;;3.47;;
21822;SDS011;11074;48.596;9.238;2022-08-05T02:05:41;4.57;;;3.65;;
21822;SDS011;11074;48.596;9.238;2022-08-05T02:08:10;5.60;;;3.50;;
21822;SDS011;11074;48.596;9.238;2022-08-05T02:10:38;7.28;;;3.63;;
21822;SDS011;11074;48.596;9.238;2022-08-05T02:13:16;6.20;;;3.40;;
21822;SDS011;11074;48.596;9.238;2022-08-05T02:16:06;5.55;;;3.70;;
21822;SDS011;11074;48.596;9.238;2022-08-05T02:18:53;6.22;;;3.70;;
21822;SDS011;11074;48.596;9.238;2022-08-05T02:21:27;5.65;;;3.95;;
21822;SDS011;11074;48.596;9.238;2022-08-05T02:24:01;5.70;;;3.95;;
21822;SDS011;11074;48.596;9.238;2022-08-05T02:26:46;3.57;;;3.13;;
21822;SDS011;11074;48.596;9.238;2022-08-05T02:29:19;4.32;;;3.50;;
21822;SDS011;11074;48.596;9.238;2022-08-05T02:31:49;6.45;;;3.80;;
21822;SDS011;11074;48.596;9.238;2022-08-05T02:34:21;5.32;;;3.58;;
21822;SDS011;11074;48.596;9.238;2022-08-05T02:36:52;5.30;;;3.47;;
21822;SDS011;11074;48.596;9.238;2022-08-05T02:39:22;4.15;;;3.70;;
21822;SDS011;11074;48.596;9.238;2022-08-05T02:41:51;4.35;;;3.38;;
21822;SDS011;11074;48.596;9.238;2022-08-05T02:44:20;4.70;;;3.20;;
21822;SDS011;11074;48.596;9.238;2022-08-05T02:46:50;5.85;;;3.20;;
21822;SDS011;11074;48.596;9.238;2022-08-05T02:49:20;5.78;;;3.20;;
21822;SDS011;11074;48.596;9.238;2022-08-05T02:51:48;4.93;;;3.80;;
21822;SDS011;11074;48.596;9.238;2022-08-05T02:54:15;4.65;;;3.78;;
21822;SDS011;11074;48.596;9.238;2022-08-05T02:56:42;4.47;;;3.55;;
21822;SDS011;11074;48.596;9.238;2022-08-05T02:59:09;4.68;;;3.60;;
21822;SDS011;11074;48.596;9.238;2022-08-05T03:01:37;7.35;;;3.40;;
21822;SDS011;11074;48.596;9.238;2022-08-05T03:04:05;4.40;;;3.50;;
21822;SDS011;11074;48.596;9.238;2022-08-05T03:06:38;5.45;;;3.28;;
21822;SDS011;11074;48.596;9.238;2022-08-05T03:09:06;4.15;;;3.30;;
21822;SDS011;11074;48.596;9.238;2022-08-05T03:11:36;3.80;;;3.33;;
21822;SDS011;11074;48.596;9.238;2022-08-05T03:14:07;7.05;;;3.78;;
21822;SDS011;11074;48.596;9.238;2022-08-05T03:16:34;6.00;;;3.40;;
21822;SDS011;11074;48.596;9.238;2022-08-05T03:19:00;5.25;;;3.63;;
21822;SDS011;11074;48.596;9.238;2022-08-05T03:21:26;3.80;;;3.20;;
21822;SDS011;11074;48.596;9.238;2022-08-05T03:23:51;4.22;;;3.30;;
21822;SDS011;11074;48.596;9.238;2022-08-05T03:26:18;6.70;;;3.10;;
21822;SDS011;11074;48.596;9.238;2022-08-05T03:28:44;10.73;;;3.30;;
21822;SDS011;11074;48.596;9.238;2022-08-05T03:31:10;6.03;;;3.25;;
21822;SDS011;11074;48.596;9.238;2022-08-05T03:33:37;4.97;;;3.42;;
21822;SDS011;11074;48.596;9.238;2022-08-05T03:36:03;5.75;;;3.45;;
21822;SDS011;11074;48.596;9.238;2022-08-05T03:38:30;6.05;;;3.40;;
21822;SDS011;11074;48.596;9.238;2022-08-05T03:40:56;4.63;;;3.05;;
21822;SDS011;11074;48.596;9.238;2022-08-05T03:43:21;4.65;;;3.63;;
21822;SDS011;11074;48.596;9.238;2022-08-05T03:45:51;4.75;;;3.25;;
21822;SDS011;11074;48.596;9.238;2022-08-05T03:48:20;5.20;;;3.20;;
21822;SDS011;11074;48.596;9.238;2022-08-05T03:53:58;4.68;;;3.38;;
21822;SDS011;11074;48.596;9.238;2022-08-05T03:56:41;5.63;;;3.50;;
21822;SDS011;11074;48.596;9.238;2022-08-05T03:59:15;4.75;;;3.90;;
21822;SDS011;11074;48.596;9.238;2022-08-05T04:01:50;5.40;;;3.78;;
21822;SDS011;11074;48.596;9.238;2022-08-05T04:04:19;5.30;;;3.67;;
21822;SDS011;11074;48.596;9.238;2022-08-05T04:06:47;6.22;;;3.97;;
21822;SDS011;11074;48.596;9.238;2022-08-05T04:09:15;5.35;;;3.80;;
21822;SDS011;11074;48.596;9.238;2022-08-05T04:11:42;5.82;;;3.13;;
21822;SDS011;11074;48.596;9.238;2022-08-05T04:14:08;5.22;;;4.03;;
21822;SDS011;11074;48.596;9.238;2022-08-05T04:16:35;5.78;;;4.10;;
21822;SDS011;11074;48.596;9.238;2022-08-05T04:19:01;4.28;;;3.83;;
21822;SDS011;11074;48.596;9.238;2022-08-05T04:21:28;7.97;;;4.18;;
21822;SDS011;11074;48.596;9.238;2022-08-05T04:23:54;6.95;;;3.42;;
21822;SDS011;11074;48.596;9.238;2022-08-05T04:26:22;6.10;;;3.95;;
21822;SDS011;11074;48.596;9.238;2022-08-05T04:28:48;4.97;;;3.58;;
21822;SDS011;11074;48.596;9.238;2022-08-05T04:31:14;5.47;;;3.20;;
21822;SDS011;11074;48.596;9.238;2022-08-05T04:33:40;4.90;;;3.88;;
21822;SDS011;11074;48.596;9.238;2022-08-05T04:36:06;5.07;;;3.83;;
21822;SDS011;11074;48.596;9.238;2022-08-05T04:38:33;6.38;;;3.60;;
21822;SDS011;11074;48.596;9.238;2022-08-05T04:41:01;5.03;;;3.83;;
21822;SDS011;11074;48.596;9.238;2022-08-05T04:43:26;6.97;;;3.58;;
21822;SDS011;11074;48.596;9.238;2022-08-05T04:45:52;6.80;;;3.60;;
21822;SDS011;11074;48.596;9.238;2022-08-05T04:48:18;4.60;;;3.47;;
21822;SDS011;11074;48.596;9.238;2022-08-05T04:50:44;6.47;;;3.42;;
21822;SDS011;11074;48.596;9.238;2022-08-05T04:53:13;5.95;;;3.33;;
21822;SDS011;11074;48.596;9.238;2022-08-05T04:55:41;5.90;;;3.30;;
21822;SDS011;11074;48.596;9.238;2022-08-05T04:58:10;4.13;;;3.42;;
21822;SDS011;11074;48.596;9.238;2022-08-05T05:00:38;7.07;;;3.58;;
21822;SDS011;11074;48.596;9.238;2022-08-05T05:03:05;6.40;;;3.60;;
21822;SDS011;11074;48.596;9.238;2022-08-05T05:05:32;6.30;;;3.58;;
21822;SDS011;11074;48.596;9.238;2022-08-05T05:07:59;4.57;;;3.45;;
21822;SDS011;11074;48.596;9.238;2022-08-05T05:10:32;6.80;;;3.45;;
21822;SDS011;11074;48.596;9.238;2022-08-05T05:13:10;4.93;;;3.20;;
21822;SDS011;11074;48.596;9.238;2022-08-05T05:15:42;4.57;;;3.15;;
21822;SDS011;11074;48.596;9.238;2022-08-05T05:18:13;4.10;;;3.10;;
21822;SDS011;11074;48.596;9.238;2022-08-05T05:20:43;6.55;;;3.53;;
21822;SDS011;11074;48.596;9.238;2022-08-05T05:23:10;4.75;;;3.50;;
21822;SDS011;11074;48.596;9.238;2022-08-05T05:25:39;6.78;;;3.22;;
21822;SDS011;11074;48.596;9.238;2022-08-05T05:28:06;6.57;;;3.25;;
21822;SDS011;11074;48.596;9.238;2022-08-05T05:30:33;6.43;;;3.15;;
21822;SDS011;11074;48.596;9.238;2022-08-05T05:32:59;8.10;;;3.33;;
21822;SDS011;11074;48.596;9.238;2022-08-05T05:35:28;7.93;;;3.13;;
21822;SDS011;11074;48.596;9.238;2022-08-05T05:37:56;7.38;;;3.28;;
21822;SDS011;11074;48.596;9.238;2022-08-05T05:40:25;17.48;;;3.63;;
21822;SDS011;11074;48.596;9.238;2022-08-05T05:42:52;5.13;;;3.38;;
21822;SDS011;11074;48.596;9.238;2022-08-05T05:45:18;7.35;;;3.95;;
21822;SDS011;11074;48.596;9.238;2022-08-05T05:47:44;6.60;;;3.05;;
21822;SDS011;11074;48.596;9.238;2022-08-05T05:50:12;6.53;;;3.15;;
21822;SDS011;11074;48.596;9.238;2022-08-05T05:52:43;5.57;;;3.10;;
21822;SDS011;11074;48.596;9.238;2022-08-05T05:55:12;6.40;;;3.60;;
21822;SDS011;11074;48.596;9.238;2022-08-05T05:57:40;4.80;;;3.20;;
21822;SDS011;11074;48.596;9.238;2022-08-05T06:00:11;5.20;;;3.60;;
21822;SDS011;11074;48.596;9.238;2022-08-05T06:02:41;6.50;;;3.10;;
21822;SDS011;11074;48.596;9.238;2022-08-05T06:05:09;4.82;;;3.05;;
21822;SDS011;11074;48.596;9.238;2022-08-05T06:07:37;7.40;;;3.13;;
21822;SDS011;11074;48.596;9.238;2022-08-05T06:10:04;5.30;;;3.70;;
21822;SDS011;11074;48.596;9.238;2022-08-05T06:12:30;8.00;;;3.58;;
21822;SDS011;11074;48.596;9.238;2022-08-05T06:14:57;6.88;;;3.08;;
21822;SDS011;11074;48.596;9.238;2022-08-05T06:17:25;7.57;;;3.53;;
21822;SDS011;11074;48.596;9.238;2022-08-05T06:19:51;7.70;;;3.60;;
21822;SDS011;11074;48.596;9.238;2022-08-05T06:22:50;5.85;;;3.30;;
21822;SDS011;11074;48.596;9.238;2022-08-05T06:25:09;10.32;;;3.60;;
21822;SDS011;11074;48.596;9.238;2022-08-05T06:27:35;7.32;;;3.80;;
21822;SDS011;11074;48.596;9.238;2022-08-05T06:30:01;6.00;;;3.47;;
21822;SDS011;11074;48.596;9.238;2022-08-05T06:32:28;6.43;;;3.63;;
21822;SDS011;11074;48.596;9.238;2022-08-05T06:34:54;7.20;;;3.80;;
21822;SDS011;11074;48.596;9.238;2022-08-05T06:37:23;5.53;;;3.47;;
21822;SDS011;11074;48.596;9.238;2022-08-05T06:39:50;8.73;;;3.47;;
21822;SDS011;11074;48.596;9.238;2022-08-05T06:42:16;7.47;;;3.60;;
21822;SDS011;11074;48.596;9.238;2022-08-05T06:44:41;5.38;;;3.58;;
21822;SDS011;11074;48.596;9.238;2022-08-05T06:47:07;7.40;;;4.07;;
21822;SDS011;11074;48.596;9.238;2022-08-05T06:49:34;7.72;;;3.60;;
21822;SDS011;11074;48.596;9.238;2022-08-05T06:52:00;6.28;;;3.40;;
21822;SDS011;11074;48.596;9.238;2022-08-05T06:54:25;9.05;;;3.58;;
21822;SDS011;11074;48.596;9.238;2022-08-05T06:56:51;8.02;;;3.80;;
21822;SDS011;11074;48.596;9.238;2022-08-05T06:59:16;4.95;;;3.60;;
21822;SDS011;11074;48.596;9.238;2022-08-05T07:01:42;4.68;;;3.10;;
21822;SDS011;11074;48.596;9.238;2022-08-05T07:04:08;10.50;;;3.25;;
21822;SDS011;11074;48.596;9.238;2022-08-05T07:06:34;7.40;;;3.47;;
21822;SDS011;11074;48.596;9.238;2022-08-05T07:08:59;5.07;;;3.30;;
21822;SDS011;11074;48.596;9.238;2022-08-05T07:11:25;7.38;;;3.47;;
21822;SDS011;11074;48.596;9.238;2022-08-05T07:13:52;5.97;;;3.25;;
21822;SDS011;11074;48.596;9.238;2022-08-05T07:16:37;5.05;;;3.42;;
21822;SDS011;11074;48.596;9.238;2022-08-05T07:19:15;9.60;;;3.58;;
21822;SDS011;11074;48.596;9.238;2022-08-05T07:21:44;8.27;;;3.30;;
21822;SDS011;11074;48.596;9.238;2022-08-05T07:24:12;4.55;;;3.35;;
21822;SDS011;11074;48.596;9.238;2022-08-05T07:26:37;5.70;;;3.13;;
21822;SDS011;11074;48.596;9.238;2022-08-05T07:29:04;7.07;;;3.42;;
21822;SDS011;11074;48.596;9.238;2022-08-05T07:31:30;6.50;;;3.00;;
21822;SDS011;11074;48.596;9.238;2022-08-05T07:33:55;5.32;;;3.10;;
21822;SDS011;11074;48.596;9.238;2022-08-05T07:36:21;5.88;;;3.10;;
21822;SDS011;11074;48.596;9.238;2022-08-05T07:38:47;4.82;;;3.08;;
21822;SDS011;11074;48.596;9.238;2022-08-05T07:41:17;5.05;;;2.50;;
21822;SDS011;11074;48.596;9.238;2022-08-05T07:43:46;3.67;;;2.53;;
21822;SDS011;11074;48.596;9.238;2022-08-05T07:46:11;5.10;;;2.53;;
21822;SDS011;11074;48.596;9.238;2022-08-05T07:48:38;4.40;;;2.60;;
21822;SDS011;11074;48.596;9.238;2022-08-05T07:51:04;3.35;;;2.38;;
21822;SDS011;11074;48.596;9.238;2022-08-05T07:53:30;4.20;;;2.13;;
21822;SDS011;11074;48.596;9.238;2022-08-05T07:55:55;4.45;;;2.45;;
21822;SDS011;11074;48.596;9.238;2022-08-05T07:58:21;4.40;;;2.42;;
21822;SDS011;11074;48.596;9.238;2022-08-05T08:00:47;5.50;;;2.35;;
21822;SDS011;11074;48.596;9.238;2022-08-05T08:03:14;4.18;;;2.20;;
21822;SDS011;11074;48.596;9.238;2022-08-05T08:05:40;3.72;;;2.15;;
21822;SDS011;11074;48.596;9.238;2022-08-05T08:08:08;5.43;;;2.28;;
21822;SDS011;11074;48.596;9.238;2022-08-05T08:10:37;2.83;;;2.10;;
21822;SDS011;11074;48.596;9.238;2022-08-05T08:13:04;4.28;;;2.25;;
21822;SDS011;11074;48.596;9.238;2022-08-05T08:15:31;4.57;;;2.05;;
21822;SDS011;11074;48.596;9.238;2022-08-05T08:17:57;3.20;;;2.05;;
21822;SDS011;11074;48.596;9.238;2022-08-05T08:20:23;3.83;;;2.30;;
21822;SDS011;11074;48.596;9.238;2022-08-05T08:22:51;4.25;;;2.30;;
21822;SDS011;11074;48.596;9.238;2022-08-05T08:25:26;4.07;;;2.10;;
21822;SDS011;11074;48.596;9.238;2022-08-05T08:27:53;5.53;;;2.45;;
21822;SDS011;11074;48.596;9.238;2022-08-05T08:30:19;3.20;;;2.13;;
21822;SDS011;11074;48.596;9.238;2022-08-05T08:32:45;5.10;;;2.22;;
21822;SDS011;11074;48.596;9.238;2022-08-05T08:35:12;4.82;;;2.42;;
21822;SDS011;11074;48.596;9.238;2022-08-05T08:37:38;4.30;;;2.22;;
21822;SDS011;11074;48.596;9.238;2022-08-05T08:40:04;6.57;;;2.25;;
21822;SDS011;11074;48.596;9.238;2022-08-05T08:42:30;4.53;;;2.15;;
21822;SDS011;11074;48.596;9.238;2022-08-05T08:44:57;4.05;;;2.22;;
21822;SDS011;11074;48.596;9.238;2022-08-05T08:47:25;2.13;;;1.85;;
21822;SDS011;11074;48.596;9.238;2022-08-05T08:49:52;3.60;;;2.30;;
21822;SDS011;11074;48.596;9.238;2022-08-05T08:52:24;2.95;;;2.10;;
21822;SDS011;11074;48.596;9.238;2022-08-05T08:54:55;3.63;;;1.90;;
21822;SDS011;11074;48.596;9.238;2022-08-05T08:57:22;2.83;;;1.70;;
21822;SDS011;11074;48.596;9.238;2022-08-05T08:59:48;3.08;;;1.80;;
21822;SDS011;11074;48.596;9.238;2022-08-05T09:02:14;2.55;;;1.70;;
21822;SDS011;11074;48.596;9.238;2022-08-05T09:04:44;2.20;;;1.60;;
21822;SDS011;11074;48.596;9.238;2022-08-05T09:07:10;2.88;;;2.13;;
21822;SDS011;11074;48.596;9.238;2022-08-05T09:09:37;2.00;;;1.70;;
21822;SDS011;11074;48.596;9.238;2022-08-05T09:12:04;2.90;;;1.92;;
21822;SDS011;11074;48.596;9.238;2022-08-05T09:14:33;3.33;;;1.80;;
21822;SDS011;11074;48.596;9.238;2022-08-05T09:17:00;2.33;;;1.70;;
21822;SDS011;11074;48.596;9.238;2022-08-05T09:19:36;2.47;;;1.80;;
21822;SDS011;11074;48.596;9.238;2022-08-05T09:22:03;2.92;;;1.70;;
21822;SDS011;11074;48.596;9.238;2022-08-05T09:24:29;2.42;;;1.98;;
21822;SDS011;11074;48.596;9.238;2022-08-05T09:26:55;4.00;;;1.77;;
21822;SDS011;11074;48.596;9.238;2022-08-05T09:29:38;3.97;;;1.80;;
21822;SDS011;11074;48.596;9.238;2022-08-05T09:32:10;3.13;;;1.92;;
21822;SDS011;11074;48.596;9.238;2022-08-05T09:34:52;3.10;;;1.77;;
21822;SDS011;11074;48.596;9.238;2022-08-05T09:37:21;3.60;;;1.70;;
21822;SDS011;11074;48.596;9.238;2022-08-05T09:39:49;2.15;;;1.70;;
21822;SDS011;11074;48.596;9.238;2022-08-05T09:42:16;3.72;;;2.10;;
21822;SDS011;11074;48.596;9.238;2022-08-05T09:44:45;3.72;;;2.03;;
21822;SDS011;11074;48.596;9.238;2022-08-05T09:47:15;4.30;;;1.90;;
21822;SDS011;11074;48.596;9.238;2022-08-05T09:49:45;2.20;;;1.77;;
21822;SDS011;11074;48.596;9.238;2022-08-05T09:52:17;2.65;;;1.80;;
21822;SDS011;11074;48.596;9.238;2022-08-05T09:54:59;2.47;;;1.80;;
21822;SDS011;11074;48.596;9.238;2022-08-05T09:57:40;2.08;;;1.80;;
21822;SDS011;11074;48.596;9.238;2022-08-05T10:00:15;2.45;;;2.00;;
21822;SDS011;11074;48.596;9.238;2022-08-05T10:02:48;3.70;;;2.08;;
21822;SDS011;11074;48.596;9.238;2022-08-05T10:05:25;4.93;;;2.10;;
21822;SDS011;11074;48.596;9.238;2022-08-05T10:08:00;3.40;;;1.95;;
21822;SDS011;11074;48.596;9.238;2022-08-05T10:10:35;3.63;;;1.88;;
21822;SDS011;11074;48.596;9.238;2022-08-05T10:13:24;2.55;;;1.85;;
21822;SDS011;11074;48.596;9.238;2022-08-05T10:16:02;2.45;;;1.90;;
21822;SDS011;11074;48.596;9.238;2022-08-05T10:18:30;3.10;;;1.90;;
21822;SDS011;11074;48.596;9.238;2022-08-05T10:20:58;3.28;;;1.90;;
21822;SDS011;11074;48.596;9.238;2022-08-05T10:23:35;2.95;;;2.00;;
21822;SDS011;11074;48.596;9.238;2022-08-05T10:26:07;1.90;;;1.52;;
21822;SDS011;11074;48.596;9.238;2022-08-05T10:31:02;2.53;;;1.90;;
21822;SDS011;11074;48.596;9.238;2022-08-05T10:33:29;1.88;;;1.73;;
21822;SDS011;11074;48.596;9.238;2022-08-05T10:35:58;2.45;;;1.85;;
21822;SDS011;11074;48.596;9.238;2022-08-05T10:38:28;2.00;;;1.80;;
21822;SDS011;11074;48.596;9.238;2022-08-05T10:41:12;2.50;;;1.58;;
21822;SDS011;11074;48.596;9.238;2022-08-05T10:44:04;4.88;;;2.17;;
21822;SDS011;11074;48.596;9.238;2022-08-05T10:49:09;2.88;;;1.70;;
21822;SDS011;11074;48.596;9.238;2022-08-05T10:54:12;2.88;;;1.75;;
21822;SDS011;11074;48.596;9.238;2022-08-05T11:01:43;3.38;;;1.75;;
21822;SDS011;11074;48.596;9.238;2022-08-05T11:04:11;2.17;;;1.77;;
21822;SDS011;11074;48.596;9.238;2022-08-05T11:09:24;3.08;;;1.80;;
21822;SDS011;11074;48.596;9.238;2022-08-05T11:15:18;5.10;;;2.00;;
21822;SDS011;11074;48.596;9.238;2022-08-05T11:20:52;3.00;;;2.40;;
21822;SDS011;11074;48.596;9.238;2022-08-05T11:28:41;3.53;;;2.28;;
21822;SDS011;11074;48.596;9.238;2022-08-05T11:33:39;2.25;;;1.98;;
21822;SDS011;11074;48.596;9.238;2022-08-05T11:36:20;1.75;;;1.48;;
21822;SDS011;11074;48.596;9.238;2022-08-05T11:39:08;3.42;;;2.00;;
21822;SDS011;11074;48.596;9.238;2022-08-05T11:41:36;5.50;;;1.95;;
21822;SDS011;11074;48.596;9.238;2022-08-05T11:44:09;2.10;;;1.60;;
21822;SDS011;11074;48.596;9.238;2022-08-05T11:46:42;2.75;;;1.95;;
21822;SDS011;11074;48.596;9.238;2022-08-05T11:49:11;1.85;;;1.40;;
21822;SDS011;11074;48.596;9.238;2022-08-05T11:51:42;2.50;;;2.00;;
21822;SDS011;11074;48.596;9.238;2022-08-05T11:54:10;4.30;;;1.80;;
21822;SDS011;11074;48.596;9.238;2022-08-05T11:56:44;1.92;;;1.70;;
21822;SDS011;11074;48.596;9.238;2022-08-05T11:59:18;2.00;;;1.58;;
21822;SDS011;11074;48.596;9.238;2022-08-05T12:01:54;4.22;;;2.00;;
21822;SDS011;11074;48.596;9.238;2022-08-05T12:04:42;2.85;;;1.80;;
21822;SDS011;11074;48.596;9.238;2022-08-05T12:07:12;3.65;;;1.95;;
21822;SDS011;11074;48.596;9.238;2022-08-05T12:09:42;2.97;;;2.00;;
21822;SDS011;11074;48.596;9.238;2022-08-05T12:12:12;2.53;;;2.00;;
21822;SDS011;11074;48.596;9.238;2022-08-05T12:14:47;1.70;;;1.50;;
21822;SDS011;11074;48.596;9.238;2022-08-05T12:17:13;1.48;;;1.27;;
21822;SDS011;11074;48.596;9.238;2022-08-05T12:19:40;3.35;;;1.67;;
21822;SDS011;11074;48.596;9.238;2022-08-05T12:22:10;3.72;;;1.95;;
21822;SDS011;11074;48.596;9.238;2022-08-05T12:24:42;3.90;;;1.85;;
21822;SDS011;11074;48.596;9.238;2022-08-05T12:27:20;1.80;;;1.50;;
21822;SDS011;11074;48.596;9.238;2022-08-05T12:30:02;3.33;;;1.73;;
21822;SDS011;11074;48.596;9.238;2022-08-05T12:32:46;2.78;;;1.98;;
21822;SDS011;11074;48.596;9.238;2022-08-05T12:35:20;3.33;;;2.00;;
21822;SDS011;11074;48.596;9.238;2022-08-05T12:37:48;2.58;;;2.00;;
21822;SDS011;11074;48.596;9.238;2022-08-05T12:40:14;2.17;;;1.98;;
21822;SDS011;11074;48.596;9.238;2022-08-05T12:42:41;3.42;;;1.70;;
21822;SDS011;11074;48.596;9.238;2022-08-05T12:45:07;3.78;;;1.80;;
21822;SDS011;11074;48.596;9.238;2022-08-05T12:47:34;2.65;;;1.58;;
21822;SDS011;11074;48.596;9.238;2022-08-05T12:50:11;2.33;;;1.60;;
21822;SDS011;11074;48.596;9.238;2022-08-05T12:52:41;3.13;;;2.13;;
21822;SDS011;11074;48.596;9.238;2022-08-05T12:55:20;1.92;;;1.63;;
21822;SDS011;11074;48.596;9.238;2022-08-05T12:57:50;2.97;;;1.70;;
21822;SDS011;11074;48.596;9.238;2022-08-05T13:00:22;2.00;;;1.58;;
21822;SDS011;11074;48.596;9.238;2022-08-05T13:02:51;2.22;;;1.65;;
21822;SDS011;11074;48.596;9.238;2022-08-05T13:05:18;2.20;;;1.70;;
21822;SDS011;11074;48.596;9.238;2022-08-05T13:07:45;2.90;;;2.00;;
21822;SDS011;11074;48.596;9.238;2022-08-05T13:10:11;2.65;;;1.63;;
21822;SDS011;11074;48.596;9.238;2022-08-05T13:12:40;3.10;;;1.85;;
21822;SDS011;11074;48.596;9.238;2022-08-05T13:15:09;4.00;;;1.75;;
21822;SDS011;11074;48.596;9.238;2022-08-05T13:17:36;2.60;;;2.00;;
21822;SDS011;11074;48.596;9.238;2022-08-05T13:20:09;2.50;;;1.90;;
21822;SDS011;11074;48.596;9.238;2022-08-05T13:22:51;2.65;;;1.92;;
21822;SDS011;11074;48.596;9.238;2022-08-05T13:25:18;3.58;;;2.30;;
21822;SDS011;11074;48.596;9.238;2022-08-05T13:27:53;3.45;;;2.70;;
21822;SDS011;11074;48.596;9.238;2022-08-05T13:30:21;4.60;;;2.35;;
21822;SDS011;11074;48.596;9.238;2022-08-05T13:32:49;3.70;;;2.17;;
21822;SDS011;11074;48.596;9.238;2022-08-05T13:35:16;2.47;;;1.63;;
21822;SDS011;11074;48.596;9.238;2022-08-05T13:37:44;2.45;;;1.90;;
21822;SDS011;11074;48.596;9.238;2022-08-05T13:40:11;2.67;;;2.47;;
21822;SDS011;11074;48.596;9.238;2022-08-05T13:42:38;3.80;;;1.85;;
21822;SDS011;11074;48.596;9.238;2022-08-05T13:45:04;2.83;;;2.05;;
21822;SDS011;11074;48.596;9.238;2022-08-05T13:47:31;3.10;;;2.35;;
21822;SDS011;11074;48.596;9.238;2022-08-05T13:50:04;2.30;;;1.75;;
21822;SDS011;11074;48.596;9.238;2022-08-05T13:52:31;2.35;;;2.00;;
21822;SDS011;11074;48.596;9.238;2022-08-05T13:54:57;3.17;;;2.53;;
21822;SDS011;11074;48.596;9.238;2022-08-05T13:57:23;4.47;;;2.22;;
21822;SDS011;11074;48.596;9.238;2022-08-05T13:59:49;2.47;;;2.15;;
21822;SDS011;11074;48.596;9.238;2022-08-05T14:02:15;2.83;;;2.20;;
21822;SDS011;11074;48.596;9.238;2022-08-05T14:04:45;3.38;;;2.38;;
21822;SDS011;11074;48.596;9.238;2022-08-05T14:07:31;3.80;;;2.20;;
21822;SDS011;11074;48.596;9.238;2022-08-05T14:10:09;3.20;;;2.33;;
21822;SDS011;11074;48.596;9.238;2022-08-05T14:12:38;2.88;;;2.35;;
21822;SDS011;11074;48.596;9.238;2022-08-05T14:15:05;2.88;;;1.60;;
21822;SDS011;11074;48.596;9.238;2022-08-05T14:17:32;2.67;;;2.22;;
21822;SDS011;11074;48.596;9.238;2022-08-05T14:19:58;1.67;;;1.42;;
21822;SDS011;11074;48.596;9.238;2022-08-05T14:22:24;2.50;;;2.05;;
21822;SDS011;11074;48.596;9.238;2022-08-05T14:24:50;4.30;;;2.53;;
21822;SDS011;11074;48.596;9.238;2022-08-05T14:27:15;3.92;;;2.17;;
21822;SDS011;11074;48.596;9.238;2022-08-05T14:29:41;4.22;;;2.28;;
21822;SDS011;11074;48.596;9.238;2022-08-05T14:32:07;3.28;;;2.33;;
21822;SDS011;11074;48.596;9.238;2022-08-05T14:34:33;3.15;;;2.30;;
21822;SDS011;11074;48.596;9.238;2022-08-05T14:36:59;2.40;;;2.08;;
21822;SDS011;11074;48.596;9.238;2022-08-05T14:39:25;2.53;;;2.03;;
21822;SDS011;11074;48.596;9.238;2022-08-05T14:41:51;2.25;;;2.05;;
21822;SDS011;11074;48.596;9.238;2022-08-05T14:44:17;3.35;;;1.88;;
21822;SDS011;11074;48.596;9.238;2022-08-05T14:46:43;3.90;;;2.38;;
21822;SDS011;11074;48.596;9.238;2022-08-05T14:49:08;3.00;;;2.25;;
21822;SDS011;11074;48.596;9.238;2022-08-05T14:51:37;2.92;;;2.10;;
21822;SDS011;11074;48.596;9.238;2022-08-05T14:54:05;2.33;;;1.80;;
21822;SDS011;11074;48.596;9.238;2022-08-05T14:56:32;2.50;;;2.25;;
21822;SDS011;11074;48.596;9.238;2022-08-05T14:58:58;3.38;;;2.00;;
21822;SDS011;11074;48.596;9.238;2022-08-05T15:01:25;4.57;;;3.03;;
21822;SDS011;11074;48.596;9.238;2022-08-05T15:03:51;4.93;;;2.78;;
21822;SDS011;11074;48.596;9.238;2022-08-05T15:06:18;6.15;;;3.72;;
21822;SDS011;11074;48.596;9.238;2022-08-05T15:08:44;10.75;;;8.05;;
21822;SDS011;11074;48.596;9.238;2022-08-05T15:11:10;4.95;;;3.40;;
21822;SDS011;11074;48.596;9.238;2022-08-05T15:13:36;4.68;;;2.80;;
21822;SDS011;11074;48.596;9.238;2022-08-05T15:16:01;4.38;;;2.55;;
21822;SDS011;11074;48.596;9.238;2022-08-05T15:18:28;2.35;;;1.92;;
21822;SDS011;11074;48.596;9.238;2022-08-05T15:20:54;2.47;;;2.10;;
21822;SDS011;11074;48.596;9.238;2022-08-05T15:23:19;2.53;;;2.00;;
21822;SDS011;11074;48.596;9.238;2022-08-05T15:25:45;4.40;;;2.03;;
21822;SDS011;11074;48.596;9.238;2022-08-05T15:28:12;2.65;;;1.73;;
21822;SDS011;11074;48.596;9.238;2022-08-05T15:30:38;2.90;;;2.00;;
21822;SDS011;11074;48.596;9.238;2022-08-05T15:33:04;3.08;;;1.92;;
21822;SDS011;11074;48.596;9.238;2022-08-05T15:35:31;1.95;;;1.75;;
21822;SDS011;11074;48.596;9.238;2022-08-05T15:37:57;2.70;;;2.10;;
21822;SDS011;11074;48.596;9.238;2022-08-05T15:40:23;2.40;;;1.80;;
21822;SDS011;11074;48.596;9.238;2022-08-05T15:42:49;4.05;;;2.30;;
21822;SDS011;11074;48.596;9.238;2022-08-05T15:45:15;3.80;;;2.55;;
21822;SDS011;11074;48.596;9.238;2022-08-05T15:47:41;4.10;;;2.47;;